createdAt,value
2022-11-27T00:00:43.236Z,91.55
2022-11-27T00:03:11.099Z,91.58
2022-11-27T00:05:40.367Z,91.38
2022-11-27T00:08:08.184Z,91.99
2022-11-27T00:10:36.193Z,91.34
2022-11-27T00:13:03.948Z,91.56
2022-11-27T00:15:31.843Z,91.87
2022-11-27T00:17:59.855Z,91.51
2022-11-27T00:20:29.862Z,91.44
2022-11-27T00:22:59.416Z,91.29
2022-11-27T00:25:27.514Z,90.91
2022-11-27T00:27:55.406Z,91.45
2022-11-27T00:30:23.551Z,90.88
2022-11-27T00:32:51.295Z,90.91
2022-11-27T00:35:19.173Z,92.43
2022-11-27T00:37:46.965Z,92.35
2022-11-27T00:40:16.748Z,92.43
2022-11-27T00:42:44.547Z,92.52
2022-11-27T00:45:13.567Z,93.28
2022-11-27T00:47:41.572Z,93.42
2022-11-27T00:50:10.398Z,93.02
2022-11-27T00:52:38.340Z,93.84
2022-11-27T00:55:07.386Z,93.07
2022-11-27T00:57:37.028Z,92.85
2022-11-27T01:00:08.521Z,92.43
2022-11-27T01:02:36.517Z,91.85
2022-11-27T01:05:04.420Z,92.63
2022-11-27T01:07:32.386Z,92.12
2022-11-27T01:10:00.460Z,91.65
2022-11-27T01:12:28.325Z,92.20
2022-11-27T01:14:57.668Z,93.09
2022-11-27T01:17:25.735Z,91.98
2022-11-27T01:19:53.574Z,92.46
2022-11-27T01:22:21.342Z,92.45
2022-11-27T01:24:49.203Z,92.29
2022-11-27T01:27:19.241Z,92.66
2022-11-27T01:29:47.124Z,92.14
2022-11-27T01:32:16.404Z,92.09
2022-11-27T01:34:44.355Z,92.82
2022-11-27T01:37:12.025Z,93.79
2022-11-27T01:39:40.026Z,94.38
2022-11-27T01:42:07.815Z,94.32
2022-11-27T01:44:52.049Z,94.07
2022-11-27T01:47:30.703Z,95.26
2022-11-27T01:50:08.233Z,95.27
2022-11-27T01:52:40.689Z,94.78
2022-11-27T01:55:13.614Z,94.39
2022-11-27T01:57:44.715Z,92.50
2022-11-27T02:00:15.666Z,92.75
2022-11-27T02:02:46.246Z,93.18
2022-11-27T02:05:16.991Z,93.33
2022-11-27T02:07:45.251Z,92.46
2022-11-27T02:10:14.421Z,92.31
2022-11-27T02:12:51.873Z,92.85
2022-11-27T02:15:26.318Z,91.44
2022-11-27T02:18:04.490Z,91.80
2022-11-27T02:20:45.111Z,92.19
2022-11-27T02:23:37.554Z,92.38
2022-11-27T02:26:39.329Z,92.11
2022-11-27T02:29:10.747Z,92.40
2022-11-27T02:31:43.050Z,92.45
2022-11-27T02:34:19.725Z,92.04
2022-11-27T02:36:54.349Z,91.93
2022-11-27T02:39:28.683Z,91.18
2022-11-27T02:42:00.300Z,92.27
2022-11-27T02:44:34.797Z,92.68
2022-11-27T02:47:06.673Z,94.06
2022-11-27T02:49:37.406Z,94.05
2022-11-27T02:52:08.282Z,92.75
2022-11-27T02:54:36.466Z,93.01
2022-11-27T02:57:06.550Z,92.62
2022-11-27T02:59:39.289Z,92.26
2022-11-27T03:02:10.997Z,92.03
2022-11-27T03:04:43.523Z,94.78
2022-11-27T03:07:16.075Z,94.83
2022-11-27T03:09:47.692Z,94.09
2022-11-27T03:12:19.690Z,92.95
2022-11-27T03:14:50.227Z,92.74
2022-11-27T03:17:32.898Z,92.15
2022-11-27T03:20:08.596Z,92.62
2022-11-27T03:22:36.599Z,92.98
2022-11-27T03:25:04.789Z,93.10
2022-11-27T03:27:36.689Z,93.30
2022-11-27T03:30:09.079Z,92.01
2022-11-27T03:32:37.063Z,91.57
2022-11-27T03:35:07.095Z,93.89
2022-11-27T03:37:34.947Z,94.10
2022-11-27T03:40:03.735Z,93.64
2022-11-27T03:42:38.530Z,94.23
2022-11-27T03:45:13.570Z,94.02
2022-11-27T03:47:53.292Z,93.22
2022-11-27T03:50:32.378Z,93.15
2022-11-27T03:53:10.153Z,93.11
2022-11-27T03:55:44.546Z,92.53
2022-11-27T03:58:18.851Z,93.58
2022-11-27T04:00:51.419Z,92.83
2022-11-27T04:03:25.104Z,92.51
2022-11-27T04:05:53.400Z,92.25
2022-11-27T04:08:21.238Z,92.10
2022-11-27T04:10:49.311Z,91.79
2022-11-27T04:13:17.354Z,93.03
2022-11-27T04:15:45.249Z,92.91
2022-11-27T04:18:14.447Z,92.65
2022-11-27T04:20:42.388Z,93.17
2022-11-27T04:23:10.693Z,92.22
2022-11-27T04:25:38.802Z,91.86
2022-11-27T04:28:06.950Z,92.14
2022-11-27T04:30:35.699Z,92.05
2022-11-27T04:33:03.918Z,91.23
2022-11-27T04:35:33.537Z,90.87
2022-11-27T04:38:01.601Z,91.09
2022-11-27T04:40:29.721Z,91.21
2022-11-27T04:42:57.893Z,91.26
2022-11-27T04:45:25.981Z,91.42
2022-11-27T04:47:53.977Z,90.94
2022-11-27T04:50:22.191Z,92.22
2022-11-27T04:52:51.656Z,92.92
2022-11-27T04:55:19.876Z,92.26
2022-11-27T04:57:48.116Z,92.30
2022-11-27T05:00:17.101Z,92.49
2022-11-27T05:02:45.226Z,92.05
2022-11-27T05:05:13.455Z,92.46
2022-11-27T05:07:41.484Z,92.66
2022-11-27T05:10:11.777Z,92.13
2022-11-27T05:12:39.947Z,90.83
2022-11-27T05:15:09.516Z,90.87
2022-11-27T05:17:37.657Z,91.00
2022-11-27T05:20:07.185Z,90.96
2022-11-27T05:22:35.389Z,91.94
2022-11-27T05:25:03.475Z,91.64
2022-11-27T05:27:33.136Z,91.87
2022-11-27T05:30:01.247Z,92.22
2022-11-27T05:32:29.381Z,92.92
2022-11-27T05:34:57.632Z,92.38
2022-11-27T05:37:26.180Z,91.95
2022-11-27T05:39:54.142Z,92.23
2022-11-27T05:42:22.555Z,92.50
2022-11-27T05:44:57.797Z,92.42
2022-11-27T05:47:26.788Z,92.34
2022-11-27T05:49:55.192Z,91.44
2022-11-27T05:52:23.546Z,91.41
2022-11-27T05:54:51.720Z,91.75
2022-11-27T05:57:19.721Z,92.58
2022-11-27T05:59:48.075Z,92.45
2022-11-27T06:02:22.636Z,92.60
2022-11-27T06:04:53.265Z,93.67
2022-11-27T06:07:21.455Z,92.88
2022-11-27T06:09:49.707Z,92.00
2022-11-27T06:12:17.873Z,92.24
2022-11-27T06:14:46.012Z,91.59
2022-11-27T06:17:16.847Z,91.59
2022-11-27T06:19:46.653Z,91.12
2022-11-27T06:22:14.656Z,90.61
2022-11-27T06:24:43.031Z,90.81
2022-11-27T06:27:11.360Z,90.66
2022-11-27T06:29:39.400Z,90.40
2022-11-27T06:32:07.770Z,90.17
2022-11-27T06:34:35.987Z,89.79
2022-11-27T06:37:09.183Z,90.28
2022-11-27T06:39:38.539Z,90.50
2022-11-27T06:42:06.718Z,90.63
2022-11-27T06:44:34.774Z,90.65
2022-11-27T06:47:03.318Z,91.17
2022-11-27T06:49:31.531Z,90.65
2022-11-27T06:51:59.673Z,90.41
2022-11-27T06:54:29.459Z,90.99
2022-11-27T06:56:58.725Z,91.23
2022-11-27T06:59:26.773Z,90.51
2022-11-27T07:01:54.946Z,90.88
2022-11-27T07:04:24.334Z,90.65
2022-11-27T07:06:54.984Z,91.35
2022-11-27T07:09:23.023Z,91.29
2022-11-27T07:11:53.127Z,91.49
2022-11-27T07:14:21.351Z,91.22
2022-11-27T07:16:49.417Z,90.94
2022-11-27T07:19:17.523Z,90.22
2022-11-27T07:21:45.633Z,89.98
2022-11-27T07:24:13.723Z,90.49
2022-11-27T07:26:41.821Z,91.05
2022-11-27T07:29:11.398Z,89.92
2022-11-27T07:31:39.564Z,90.52
2022-11-27T07:34:14.049Z,90.20
2022-11-27T07:36:44.295Z,91.68
2022-11-27T07:39:12.362Z,91.85
2022-11-27T07:41:40.516Z,91.89
2022-11-27T07:44:09.099Z,90.49
2022-11-27T07:46:38.711Z,90.14
2022-11-27T07:49:07.053Z,91.91
2022-11-27T07:51:35.070Z,93.50
2022-11-27T07:54:03.226Z,93.61
2022-11-27T07:56:31.845Z,94.16
2022-11-27T07:58:59.907Z,94.02
2022-11-27T08:01:28.068Z,94.78
2022-11-27T08:03:57.764Z,94.98
2022-11-27T08:06:27.586Z,93.89
2022-11-27T08:08:57.159Z,94.44
2022-11-27T08:11:27.356Z,94.33
2022-11-27T08:13:58.332Z,94.00
2022-11-27T08:16:28.338Z,92.69
2022-11-27T08:18:58.523Z,93.34
2022-11-27T08:21:29.967Z,92.54
2022-11-27T08:23:58.901Z,92.78
2022-11-27T08:26:29.680Z,92.49
2022-11-27T08:28:58.556Z,93.00
2022-11-27T08:31:31.829Z,92.30
2022-11-27T08:34:03.046Z,91.87
2022-11-27T08:36:32.011Z,92.50
2022-11-27T08:39:00.384Z,90.79
2022-11-27T08:41:32.483Z,89.74
2022-11-27T08:44:01.504Z,90.44
2022-11-27T08:46:31.034Z,90.29
2022-11-27T08:49:02.149Z,89.33
2022-11-27T08:51:30.932Z,90.89
2022-11-27T08:53:59.300Z,91.23
2022-11-27T08:56:29.126Z,90.65
2022-11-27T08:58:59.750Z,90.81
2022-11-27T09:01:29.803Z,90.13
2022-11-27T09:04:00.870Z,91.52
2022-11-27T09:06:33.346Z,91.58
2022-11-27T09:09:02.814Z,91.35
2022-11-27T09:11:33.153Z,90.54
2022-11-27T09:14:03.642Z,91.83
2022-11-27T09:16:31.934Z,90.53
2022-11-27T09:19:02.952Z,89.40
2022-11-27T09:21:33.209Z,89.01
2022-11-27T09:24:03.550Z,89.08
2022-11-27T09:26:31.891Z,89.02
2022-11-27T09:29:01.707Z,87.95
2022-11-27T09:31:30.073Z,90.33
2022-11-27T09:33:59.589Z,88.33
2022-11-27T09:36:31.873Z,87.54
2022-11-27T09:39:03.774Z,87.22
2022-11-27T09:41:43.299Z,88.21
2022-11-27T09:44:33.742Z,86.89
2022-11-27T09:47:09.096Z,88.13
2022-11-27T09:49:43.807Z,87.30
2022-11-27T09:52:19.708Z,86.25
2022-11-27T09:54:57.930Z,85.19
2022-11-27T09:57:30.563Z,84.68
2022-11-27T10:00:03.419Z,83.81
2022-11-27T10:02:37.871Z,83.32
2022-11-27T10:05:16.984Z,81.70
2022-11-27T10:08:06.642Z,82.61
2022-11-27T10:10:48.765Z,82.41
2022-11-27T10:13:33.215Z,82.21
2022-11-27T10:16:07.117Z,81.96
2022-11-27T10:18:41.743Z,82.39
2022-11-27T10:21:17.755Z,82.82
2022-11-27T10:23:54.204Z,80.89
2022-11-27T10:26:32.561Z,82.60
2022-11-27T10:29:11.138Z,83.56
2022-11-27T10:31:46.430Z,83.06
2022-11-27T10:34:29.091Z,82.47
2022-11-27T10:36:59.200Z,83.57
2022-11-27T10:39:34.053Z,85.74
2022-11-27T10:42:12.689Z,85.77
2022-11-27T10:44:44.890Z,86.09
2022-11-27T10:47:15.135Z,87.14
2022-11-27T10:49:44.356Z,87.42
2022-11-27T10:52:16.184Z,86.48
2022-11-27T10:54:47.223Z,86.84
2022-11-27T10:57:39.133Z,86.34
2022-11-27T11:00:15.218Z,85.01
2022-11-27T11:02:43.889Z,86.60
2022-11-27T11:05:34.971Z,86.77
2022-11-27T11:08:06.495Z,87.56
2022-11-27T11:10:38.210Z,85.49
2022-11-27T11:13:20.249Z,85.43
2022-11-27T11:15:55.048Z,84.83
2022-11-27T11:18:26.188Z,86.44
2022-11-27T11:20:56.085Z,86.12
2022-11-27T11:23:34.480Z,85.68
2022-11-27T11:26:06.869Z,86.10
2022-11-27T11:28:45.850Z,85.20
2022-11-27T11:31:18.331Z,86.02
2022-11-27T11:33:54.027Z,86.25
2022-11-27T11:36:22.948Z,85.97
2022-11-27T11:38:52.801Z,85.64
2022-11-27T11:41:24.526Z,85.48
2022-11-27T11:44:02.225Z,84.68
2022-11-27T11:46:33.077Z,83.96
2022-11-27T11:49:03.834Z,83.87
2022-11-27T11:51:48.221Z,83.29
2022-11-27T11:54:30.777Z,83.13
2022-11-27T11:57:03.137Z,85.09
2022-11-27T11:59:45.277Z,85.45
2022-11-27T12:02:39.131Z,86.44
2022-11-27T12:05:33.601Z,86.90
2022-11-27T12:08:22.275Z,86.32
2022-11-27T12:10:59.512Z,87.79
2022-11-27T12:13:41.010Z,86.70
2022-11-27T12:16:17.241Z,86.66
2022-11-27T12:18:58.040Z,87.11
2022-11-27T12:21:38.212Z,86.60
2022-11-27T12:24:23.552Z,86.67
2022-11-27T12:27:08.356Z,84.95
2022-11-27T12:30:08.637Z,86.85
2022-11-27T12:33:05.412Z,87.09
2022-11-27T12:35:35.350Z,87.94
2022-11-27T12:38:29.464Z,88.14
2022-11-27T12:41:34.649Z,86.86
2022-11-27T12:44:03.343Z,87.36
2022-11-27T12:46:39.712Z,87.34
2022-11-27T12:49:18.011Z,87.43
2022-11-27T12:51:51.645Z,87.79
2022-11-27T12:54:27.011Z,87.06
2022-11-27T12:56:58.875Z,87.24
2022-11-27T12:59:34.009Z,85.95
2022-11-27T13:02:13.993Z,85.64
2022-11-27T13:04:51.294Z,84.57
2022-11-27T13:07:27.052Z,84.56
2022-11-27T13:10:00.717Z,83.62
2022-11-27T13:12:33.975Z,83.64
2022-11-27T13:15:05.772Z,83.85
2022-11-27T13:17:38.586Z,84.52
2022-11-27T13:20:18.049Z,84.50
2022-11-27T13:22:49.067Z,83.86
2022-11-27T13:25:17.486Z,82.75
2022-11-27T13:27:50.573Z,82.41
2022-11-27T13:30:22.761Z,84.02
2022-11-27T13:32:55.847Z,86.34
2022-11-27T13:35:30.283Z,87.34
2022-11-27T13:38:04.885Z,87.73
2022-11-27T13:40:41.797Z,87.15
2022-11-27T13:43:41.265Z,85.84
2022-11-27T13:46:15.006Z,87.77
2022-11-27T13:48:49.873Z,88.73
2022-11-27T13:51:28.398Z,88.15
2022-11-27T13:54:09.462Z,87.97
2022-11-27T13:56:40.584Z,87.30
2022-11-27T13:59:17.294Z,85.97
2022-11-27T14:01:59.331Z,85.72
2022-11-27T14:04:27.884Z,87.53
2022-11-27T14:07:06.331Z,87.53
2022-11-27T14:09:41.086Z,86.67
2022-11-27T14:12:19.122Z,87.92
2022-11-27T14:15:00.757Z,87.51
2022-11-27T14:17:36.318Z,87.47
2022-11-27T14:20:10.064Z,88.27
2022-11-27T14:23:10.436Z,87.92
2022-11-27T14:25:37.154Z,88.57
2022-11-27T14:28:15.335Z,87.88
2022-11-27T14:30:48.711Z,87.96
2022-11-27T14:33:22.395Z,87.48
2022-11-27T14:35:52.518Z,87.22
2022-11-27T14:38:22.858Z,87.91
2022-11-27T14:40:54.641Z,88.23
2022-11-27T14:43:26.318Z,87.82
2022-11-27T14:45:57.662Z,87.28
2022-11-27T14:48:27.721Z,88.02
2022-11-27T14:50:58.293Z,87.92
2022-11-27T14:53:29.230Z,87.80
2022-11-27T14:55:59.492Z,88.03
2022-11-27T14:58:30.003Z,87.86
2022-11-27T15:01:01.831Z,87.00
2022-11-27T15:03:30.800Z,88.09
2022-11-27T15:06:00.668Z,87.22
2022-11-27T15:08:35.965Z,87.47
2022-11-27T15:11:06.225Z,87.06
2022-11-27T15:13:38.053Z,86.82
2022-11-27T15:16:16.114Z,87.08
2022-11-27T15:18:49.434Z,87.74
2022-11-27T15:21:21.930Z,87.28
2022-11-27T15:23:52.958Z,86.83
2022-11-27T15:26:33.880Z,88.23
2022-11-27T15:29:03.414Z,88.08
2022-11-27T15:31:34.569Z,87.71
2022-11-27T15:34:06.350Z,88.50
2022-11-27T15:36:37.175Z,88.12
2022-11-27T15:39:19.317Z,88.33
2022-11-27T15:41:58.626Z,88.22
2022-11-27T15:44:28.454Z,87.32
2022-11-27T15:46:58.959Z,88.52
2022-11-27T15:49:28.007Z,87.57
2022-11-27T15:51:57.447Z,87.10
2022-11-27T15:54:29.748Z,87.86
2022-11-27T15:56:58.244Z,87.23
2022-11-27T15:59:27.439Z,86.73
2022-11-27T16:01:56.253Z,87.11
2022-11-27T16:04:24.870Z,86.88
2022-11-27T16:06:53.142Z,87.94
2022-11-27T16:09:21.238Z,87.39
2022-11-27T16:11:51.023Z,86.86
2022-11-27T16:14:19.734Z,87.02
2022-11-27T16:16:47.974Z,87.61
2022-11-27T16:19:17.164Z,87.32
2022-11-27T16:21:45.328Z,86.58
2022-11-27T16:24:15.601Z,87.31
2022-11-27T16:26:43.918Z,87.51
2022-11-27T16:29:13.790Z,88.25
2022-11-27T16:31:42.262Z,88.54
2022-11-27T16:34:10.450Z,87.45
2022-11-27T16:36:38.647Z,88.30
2022-11-27T16:39:06.694Z,88.52
2022-11-27T16:41:34.959Z,87.56
2022-11-27T16:44:03.418Z,87.68
2022-11-27T16:46:33.216Z,88.87
2022-11-27T16:49:01.642Z,88.07
2022-11-27T16:51:32.754Z,88.01
2022-11-27T16:54:02.067Z,88.81
2022-11-27T16:56:31.904Z,89.01
2022-11-27T16:59:03.359Z,90.16
2022-11-27T17:01:37.132Z,89.57
2022-11-27T17:04:09.054Z,89.76
2022-11-27T17:06:39.110Z,89.22
2022-11-27T17:09:09.048Z,88.01
2022-11-27T17:11:41.148Z,88.29
2022-11-27T17:14:10.588Z,88.71
2022-11-27T17:16:42.897Z,88.45
2022-11-27T17:19:13.659Z,88.68
2022-11-27T17:21:42.269Z,88.70
2022-11-27T17:24:15.399Z,88.46
2022-11-27T17:26:44.825Z,88.83
2022-11-27T17:29:14.430Z,88.52
2022-11-27T17:31:44.562Z,88.10
2022-11-27T17:34:14.779Z,88.35
2022-11-27T17:36:45.108Z,88.03
2022-11-27T17:39:15.261Z,88.30
2022-11-27T17:41:45.417Z,88.57
2022-11-27T17:44:13.736Z,87.47
2022-11-27T17:46:45.630Z,88.70
2022-11-27T17:49:13.660Z,88.63
2022-11-27T17:51:42.250Z,87.25
2022-11-27T17:54:11.817Z,87.13
2022-11-27T17:56:40.337Z,87.31
2022-11-27T17:59:08.410Z,87.19
2022-11-27T18:01:36.661Z,87.54
2022-11-27T18:04:07.514Z,86.95
2022-11-27T18:06:36.186Z,86.37
2022-11-27T18:09:05.481Z,86.66
2022-11-27T18:11:34.982Z,86.98
2022-11-27T18:14:03.778Z,86.82
2022-11-27T18:16:34.451Z,87.04
2022-11-27T18:19:05.941Z,87.11
2022-11-27T18:21:36.376Z,86.13
2022-11-27T18:27:09.876Z,85.42
2022-11-27T18:29:39.570Z,85.57
2022-11-27T18:32:08.471Z,86.72
2022-11-27T18:34:36.743Z,86.94
2022-11-27T18:37:06.672Z,87.68
2022-11-27T18:39:36.113Z,86.95
2022-11-27T18:42:05.189Z,87.63
2022-11-27T18:44:37.277Z,88.30
2022-11-27T18:47:11.323Z,87.43
2022-11-27T18:49:40.360Z,86.67
2022-11-27T18:52:10.852Z,87.07
2022-11-27T18:54:39.010Z,86.84
2022-11-27T18:57:07.556Z,87.70
2022-11-27T18:59:36.066Z,87.85
2022-11-27T19:02:05.204Z,88.28
2022-11-27T19:04:36.591Z,88.34
2022-11-27T19:07:05.376Z,86.99
2022-11-27T19:09:35.181Z,86.98
2022-11-27T19:12:03.540Z,87.55
2022-11-27T19:14:32.158Z,87.47
2022-11-27T19:17:00.413Z,88.13
2022-11-27T19:22:17.237Z,87.90
2022-11-27T19:24:46.928Z,86.81
2022-11-27T19:27:15.095Z,87.41
2022-11-27T19:29:43.636Z,87.06
2022-11-27T19:32:11.748Z,87.47
2022-11-27T19:34:40.173Z,88.10
2022-11-27T19:37:08.505Z,87.43
2022-11-27T19:39:36.679Z,88.29
2022-11-27T19:42:06.393Z,88.04
2022-11-27T19:44:34.604Z,87.53
2022-11-27T19:47:02.980Z,86.66
2022-11-27T19:49:31.882Z,87.40
2022-11-27T19:52:00.035Z,87.18
2022-11-27T19:54:28.814Z,86.86
2022-11-27T19:56:57.207Z,87.03
2022-11-27T19:59:27.559Z,86.61
2022-11-27T20:01:55.800Z,85.94
2022-11-27T20:04:24.228Z,86.36
2022-11-27T20:06:53.714Z,86.28
2022-11-27T20:09:22.093Z,85.81
2022-11-27T20:11:50.447Z,86.22
2022-11-27T20:14:19.575Z,85.87
2022-11-27T20:16:49.359Z,85.76
2022-11-27T20:19:17.786Z,86.67
2022-11-27T20:21:46.016Z,85.02
2022-11-27T20:24:14.765Z,84.98
2022-11-27T20:26:43.605Z,85.40
2022-11-27T20:29:12.607Z,86.13
2022-11-27T20:31:44.636Z,86.07
2022-11-27T20:34:18.819Z,85.49
2022-11-27T20:36:47.352Z,86.12
2022-11-27T20:39:20.861Z,86.18
2022-11-27T20:41:51.545Z,86.42
2022-11-27T20:44:19.771Z,86.01
2022-11-27T20:46:47.890Z,85.93
2022-11-27T20:49:18.016Z,85.73
2022-11-27T20:51:46.768Z,85.72
2022-11-27T20:54:14.983Z,84.88
2022-11-27T20:56:45.179Z,85.65
2022-11-27T20:59:13.886Z,85.58
2022-11-27T21:01:42.825Z,85.40
2022-11-27T21:04:22.042Z,85.07
2022-11-27T21:06:50.371Z,84.76
2022-11-27T21:09:19.586Z,86.19
2022-11-27T21:11:48.738Z,85.70
2022-11-27T21:14:17.961Z,86.29
2022-11-27T21:16:49.146Z,85.32
2022-11-27T21:19:19.673Z,85.06
2022-11-27T21:21:49.709Z,85.62
2022-11-27T21:24:18.984Z,85.98
2022-11-27T21:26:50.258Z,85.79
2022-11-27T21:29:24.918Z,86.04
2022-11-27T21:31:54.138Z,86.14
2022-11-27T21:34:22.492Z,85.95
2022-11-27T21:36:52.313Z,85.85
2022-11-27T21:39:21.489Z,85.40
2022-11-27T21:41:50.722Z,85.53
2022-11-27T21:44:19.282Z,85.76
2022-11-27T21:46:51.165Z,85.73
2022-11-27T21:49:21.585Z,85.35
2022-11-27T21:51:54.971Z,85.39
2022-11-27T21:54:23.874Z,86.03
2022-11-27T21:56:52.996Z,85.43
2022-11-27T21:59:22.483Z,85.36
2022-11-27T22:01:51.208Z,85.52
2022-11-27T22:04:21.119Z,85.55
2022-11-27T22:06:49.943Z,85.17
2022-11-27T22:09:21.088Z,85.23
2022-11-27T22:11:50.922Z,85.67
2022-11-27T22:14:20.395Z,85.26
2022-11-27T22:16:49.713Z,84.91
2022-11-27T22:19:22.180Z,85.32
2022-11-27T22:22:00.652Z,85.29
2022-11-27T22:24:34.490Z,85.64
2022-11-27T22:27:03.239Z,85.55
2022-11-27T22:29:32.100Z,85.41
2022-11-27T22:32:03.541Z,84.85
2022-11-27T22:34:32.641Z,84.61
2022-11-27T22:37:02.774Z,85.86
2022-11-27T22:39:36.412Z,85.29
2022-11-27T22:42:18.302Z,85.63
2022-11-27T22:44:48.289Z,84.45
2022-11-27T22:47:17.373Z,85.53
2022-11-27T22:49:50.472Z,84.13
2022-11-27T22:52:22.955Z,85.28
2022-11-27T22:54:53.986Z,85.03
2022-11-27T22:57:24.164Z,84.31
2022-11-27T22:59:54.999Z,84.89
2022-11-27T23:02:24.656Z,84.55
2022-11-27T23:04:56.382Z,85.30
2022-11-27T23:07:27.391Z,84.73
2022-11-27T23:09:59.793Z,84.40
2022-11-27T23:12:30.004Z,84.48
2022-11-27T23:14:58.839Z,84.00
2022-11-27T23:17:29.236Z,83.64
2022-11-27T23:19:58.919Z,84.85
2022-11-27T23:22:30.285Z,84.27
2022-11-27T23:25:00.379Z,83.64
2022-11-27T23:27:31.439Z,83.87
2022-11-27T23:30:02.327Z,84.19
2022-11-27T23:32:33.051Z,84.92
2022-11-27T23:35:03.130Z,85.31
2022-11-27T23:37:32.647Z,86.15
2022-11-27T23:40:04.314Z,86.35
2022-11-27T23:42:34.424Z,85.56
2022-11-27T23:45:03.242Z,85.17
2022-11-27T23:47:32.371Z,84.65
2022-11-27T23:50:01.827Z,84.94
2022-11-27T23:52:31.015Z,84.69
2022-11-27T23:55:00.309Z,85.33
2022-11-27T23:57:33.000Z,86.30
